sensor_id;sensor_type;location;lat;lon;timestamp;P1;durP1;ratioP1;P2;durP2;ratioP2
73023;SDS011;72676;47.526;8.538;2024-01-07T00:00:23;9.70;;;5.70;;
73023;SDS011;72676;47.526;8.538;2024-01-07T00:02:50;9.03;;;5.67;;
73023;SDS011;72676;47.526;8.538;2024-01-07T00:05:16;10.30;;;5.67;;
73023;SDS011;72676;47.526;8.538;2024-01-07T00:07:43;11.90;;;5.60;;
73023;SDS011;72676;47.526;8.538;2024-01-07T00:10:09;11.80;;;5.93;;
73023;SDS011;72676;47.526;8.538;2024-01-07T00:12:36;7.77;;;4.27;;
73023;SDS011;72676;47.526;8.538;2024-01-07T00:15:03;19.93;;;9.10;;
73023;SDS011;72676;47.526;8.538;2024-01-07T00:17:29;18.30;;;8.90;;
73023;SDS011;72676;47.526;8.538;2024-01-07T00:19:56;9.03;;;4.27;;
73023;SDS011;72676;47.526;8.538;2024-01-07T00:22:23;8.10;;;4.27;;
73023;SDS011;72676;47.526;8.538;2024-01-07T00:24:49;27.73;;;12.80;;
73023;SDS011;72676;47.526;8.538;2024-01-07T00:27:16;16.87;;;8.50;;
73023;SDS011;72676;47.526;8.538;2024-01-07T00:29:42;14.10;;;6.50;;
73023;SDS011;72676;47.526;8.538;2024-01-07T00:32:08;9.07;;;3.93;;
73023;SDS011;72676;47.526;8.538;2024-01-07T00:34:35;5.73;;;3.30;;
73023;SDS011;72676;47.526;8.538;2024-01-07T00:37:01;5.83;;;3.43;;
73023;SDS011;72676;47.526;8.538;2024-01-07T00:39:28;5.47;;;3.20;;
73023;SDS011;72676;47.526;8.538;2024-01-07T00:41:55;6.27;;;3.13;;
73023;SDS011;72676;47.526;8.538;2024-01-07T00:44:21;7.27;;;3.80;;
73023;SDS011;72676;47.526;8.538;2024-01-07T00:46:48;5.80;;;3.10;;
73023;SDS011;72676;47.526;8.538;2024-01-07T00:49:14;6.40;;;3.03;;
73023;SDS011;72676;47.526;8.538;2024-01-07T00:51:41;5.47;;;3.10;;
73023;SDS011;72676;47.526;8.538;2024-01-07T00:54:08;5.70;;;3.10;;
73023;SDS011;72676;47.526;8.538;2024-01-07T00:56:34;4.80;;;2.80;;
73023;SDS011;72676;47.526;8.538;2024-01-07T00:59:01;6.27;;;3.40;;
73023;SDS011;72676;47.526;8.538;2024-01-07T01:01:27;5.50;;;3.17;;
73023;SDS011;72676;47.526;8.538;2024-01-07T01:03:54;5.67;;;2.90;;
73023;SDS011;72676;47.526;8.538;2024-01-07T01:06:21;5.13;;;3.30;;
73023;SDS011;72676;47.526;8.538;2024-01-07T01:08:47;7.50;;;3.77;;
73023;SDS011;72676;47.526;8.538;2024-01-07T01:11:14;7.17;;;3.63;;
73023;SDS011;72676;47.526;8.538;2024-01-07T01:13:40;7.37;;;3.70;;
73023;SDS011;72676;47.526;8.538;2024-01-07T01:16:06;7.10;;;3.67;;
73023;SDS011;72676;47.526;8.538;2024-01-07T01:18:33;5.80;;;3.67;;
73023;SDS011;72676;47.526;8.538;2024-01-07T01:21:00;11.00;;;5.53;;
73023;SDS011;72676;47.526;8.538;2024-01-07T01:23:26;11.23;;;5.03;;
73023;SDS011;72676;47.526;8.538;2024-01-07T01:25:52;8.80;;;5.10;;
73023;SDS011;72676;47.526;8.538;2024-01-07T01:28:19;6.40;;;3.57;;
73023;SDS011;72676;47.526;8.538;2024-01-07T01:30:45;6.57;;;3.60;;
73023;SDS011;72676;47.526;8.538;2024-01-07T01:33:12;7.30;;;4.30;;
73023;SDS011;72676;47.526;8.538;2024-01-07T01:35:39;6.70;;;4.07;;
73023;SDS011;72676;47.526;8.538;2024-01-07T01:38:05;7.67;;;4.00;;
73023;SDS011;72676;47.526;8.538;2024-01-07T01:40:31;7.13;;;4.37;;
73023;SDS011;72676;47.526;8.538;2024-01-07T01:42:58;8.37;;;4.67;;
73023;SDS011;72676;47.526;8.538;2024-01-07T01:45:24;6.73;;;4.03;;
73023;SDS011;72676;47.526;8.538;2024-01-07T01:47:51;6.13;;;4.13;;
73023;SDS011;72676;47.526;8.538;2024-01-07T01:50:17;8.80;;;4.87;;
73023;SDS011;72676;47.526;8.538;2024-01-07T01:52:45;8.37;;;4.33;;
73023;SDS011;72676;47.526;8.538;2024-01-07T01:55:12;6.63;;;4.00;;
73023;SDS011;72676;47.526;8.538;2024-01-07T01:57:38;8.20;;;4.97;;
73023;SDS011;72676;47.526;8.538;2024-01-07T02:00:06;7.73;;;4.57;;
73023;SDS011;72676;47.526;8.538;2024-01-07T02:02:33;8.20;;;4.23;;
73023;SDS011;72676;47.526;8.538;2024-01-07T02:05:02;7.37;;;4.43;;
73023;SDS011;72676;47.526;8.538;2024-01-07T02:07:30;8.67;;;4.20;;
73023;SDS011;72676;47.526;8.538;2024-01-07T02:09:57;8.17;;;4.70;;
73023;SDS011;72676;47.526;8.538;2024-01-07T02:12:23;7.80;;;4.07;;
73023;SDS011;72676;47.526;8.538;2024-01-07T02:14:50;9.83;;;4.20;;
73023;SDS011;72676;47.526;8.538;2024-01-07T02:17:17;6.70;;;4.00;;
73023;SDS011;72676;47.526;8.538;2024-01-07T02:19:45;8.70;;;5.10;;
73023;SDS011;72676;47.526;8.538;2024-01-07T02:22:12;8.70;;;4.70;;
73023;SDS011;72676;47.526;8.538;2024-01-07T02:24:38;7.70;;;5.10;;
73023;SDS011;72676;47.526;8.538;2024-01-07T02:27:04;9.00;;;5.23;;
73023;SDS011;72676;47.526;8.538;2024-01-07T02:29:31;8.23;;;4.60;;
73023;SDS011;72676;47.526;8.538;2024-01-07T02:31:57;8.73;;;4.73;;
73023;SDS011;72676;47.526;8.538;2024-01-07T02:34:24;8.40;;;5.00;;
73023;SDS011;72676;47.526;8.538;2024-01-07T02:36:50;10.07;;;5.13;;
73023;SDS011;72676;47.526;8.538;2024-01-07T02:39:17;6.67;;;4.07;;
73023;SDS011;72676;47.526;8.538;2024-01-07T02:41:44;7.70;;;4.47;;
73023;SDS011;72676;47.526;8.538;2024-01-07T02:44:10;6.30;;;4.17;;
73023;SDS011;72676;47.526;8.538;2024-01-07T02:46:38;7.17;;;4.80;;
73023;SDS011;72676;47.526;8.538;2024-01-07T02:49:05;8.30;;;4.50;;
73023;SDS011;72676;47.526;8.538;2024-01-07T02:51:32;8.33;;;5.23;;
73023;SDS011;72676;47.526;8.538;2024-01-07T02:53:58;7.70;;;5.03;;
73023;SDS011;72676;47.526;8.538;2024-01-07T02:56:24;8.07;;;5.10;;
73023;SDS011;72676;47.526;8.538;2024-01-07T02:58:51;8.70;;;5.20;;
73023;SDS011;72676;47.526;8.538;2024-01-07T03:01:17;7.07;;;4.43;;
73023;SDS011;72676;47.526;8.538;2024-01-07T03:03:44;9.23;;;5.90;;
73023;SDS011;72676;47.526;8.538;2024-01-07T03:06:10;9.60;;;5.30;;
73023;SDS011;72676;47.526;8.538;2024-01-07T03:08:37;13.60;;;5.30;;
73023;SDS011;72676;47.526;8.538;2024-01-07T03:11:04;8.77;;;4.93;;
73023;SDS011;72676;47.526;8.538;2024-01-07T03:13:32;8.30;;;4.70;;
73023;SDS011;72676;47.526;8.538;2024-01-07T03:15:59;11.50;;;5.37;;
73023;SDS011;72676;47.526;8.538;2024-01-07T03:18:26;9.97;;;4.90;;
73023;SDS011;72676;47.526;8.538;2024-01-07T03:20:54;8.10;;;5.07;;
73023;SDS011;72676;47.526;8.538;2024-01-07T03:23:20;9.20;;;4.93;;
73023;SDS011;72676;47.526;8.538;2024-01-07T03:25:47;9.27;;;5.13;;
73023;SDS011;72676;47.526;8.538;2024-01-07T03:28:13;10.87;;;5.20;;
73023;SDS011;72676;47.526;8.538;2024-01-07T03:30:40;9.30;;;5.80;;
73023;SDS011;72676;47.526;8.538;2024-01-07T03:33:06;8.93;;;5.50;;
73023;SDS011;72676;47.526;8.538;2024-01-07T03:35:33;9.17;;;4.97;;
73023;SDS011;72676;47.526;8.538;2024-01-07T03:37:59;8.77;;;5.03;;
73023;SDS011;72676;47.526;8.538;2024-01-07T03:40:26;8.13;;;4.63;;
73023;SDS011;72676;47.526;8.538;2024-01-07T03:42:52;9.30;;;5.33;;
73023;SDS011;72676;47.526;8.538;2024-01-07T03:45:19;9.77;;;5.73;;
73023;SDS011;72676;47.526;8.538;2024-01-07T03:47:45;10.97;;;5.67;;
73023;SDS011;72676;47.526;8.538;2024-01-07T03:50:12;9.97;;;6.20;;
73023;SDS011;72676;47.526;8.538;2024-01-07T03:52:38;9.40;;;5.30;;
73023;SDS011;72676;47.526;8.538;2024-01-07T03:55:05;9.10;;;5.60;;
73023;SDS011;72676;47.526;8.538;2024-01-07T03:57:32;8.90;;;5.03;;
73023;SDS011;72676;47.526;8.538;2024-01-07T03:59:59;9.53;;;5.80;;
73023;SDS011;72676;47.526;8.538;2024-01-07T04:02:26;11.13;;;5.80;;
73023;SDS011;72676;47.526;8.538;2024-01-07T04:04:52;9.93;;;5.43;;
73023;SDS011;72676;47.526;8.538;2024-01-07T04:07:18;9.90;;;5.80;;
73023;SDS011;72676;47.526;8.538;2024-01-07T04:09:45;8.97;;;5.70;;
73023;SDS011;72676;47.526;8.538;2024-01-07T04:12:11;11.60;;;6.40;;
73023;SDS011;72676;47.526;8.538;2024-01-07T04:14:38;10.43;;;5.97;;
73023;SDS011;72676;47.526;8.538;2024-01-07T04:17:04;11.63;;;6.67;;
73023;SDS011;72676;47.526;8.538;2024-01-07T04:19:31;10.60;;;6.03;;
73023;SDS011;72676;47.526;8.538;2024-01-07T04:21:57;9.43;;;5.50;;
73023;SDS011;72676;47.526;8.538;2024-01-07T04:24:24;10.40;;;6.10;;
73023;SDS011;72676;47.526;8.538;2024-01-07T04:26:51;9.77;;;5.47;;
73023;SDS011;72676;47.526;8.538;2024-01-07T04:29:17;11.37;;;6.47;;
73023;SDS011;72676;47.526;8.538;2024-01-07T04:31:43;11.30;;;6.27;;
73023;SDS011;72676;47.526;8.538;2024-01-07T04:34:10;9.80;;;6.10;;
73023;SDS011;72676;47.526;8.538;2024-01-07T04:36:37;12.00;;;6.57;;
73023;SDS011;72676;47.526;8.538;2024-01-07T04:39:03;10.27;;;5.87;;
73023;SDS011;72676;47.526;8.538;2024-01-07T04:41:30;10.90;;;5.90;;
73023;SDS011;72676;47.526;8.538;2024-01-07T04:43:56;10.80;;;5.90;;
73023;SDS011;72676;47.526;8.538;2024-01-07T04:46:22;9.13;;;5.57;;
73023;SDS011;72676;47.526;8.538;2024-01-07T04:48:49;11.00;;;6.07;;
73023;SDS011;72676;47.526;8.538;2024-01-07T04:51:15;9.93;;;5.27;;
73023;SDS011;72676;47.526;8.538;2024-01-07T04:53:42;9.10;;;5.70;;
73023;SDS011;72676;47.526;8.538;2024-01-07T04:56:08;10.53;;;5.87;;
73023;SDS011;72676;47.526;8.538;2024-01-07T04:58:35;9.23;;;5.40;;
73023;SDS011;72676;47.526;8.538;2024-01-07T05:01:01;10.73;;;6.33;;
73023;SDS011;72676;47.526;8.538;2024-01-07T05:03:27;8.80;;;5.33;;
73023;SDS011;72676;47.526;8.538;2024-01-07T05:05:54;11.80;;;6.20;;
73023;SDS011;72676;47.526;8.538;2024-01-07T05:08:21;8.67;;;5.30;;
73023;SDS011;72676;47.526;8.538;2024-01-07T05:10:52;11.10;;;6.30;;
73023;SDS011;72676;47.526;8.538;2024-01-07T05:13:18;11.27;;;6.27;;
73023;SDS011;72676;47.526;8.538;2024-01-07T05:15:44;13.00;;;6.50;;
73023;SDS011;72676;47.526;8.538;2024-01-07T05:18:12;11.30;;;6.20;;
73023;SDS011;72676;47.526;8.538;2024-01-07T05:20:42;7.67;;;5.00;;
73023;SDS011;72676;47.526;8.538;2024-01-07T05:23:09;9.80;;;6.10;;
73023;SDS011;72676;47.526;8.538;2024-01-07T05:25:36;11.23;;;6.20;;
73023;SDS011;72676;47.526;8.538;2024-01-07T05:28:02;11.53;;;6.90;;
73023;SDS011;72676;47.526;8.538;2024-01-07T05:30:29;11.77;;;6.93;;
73023;SDS011;72676;47.526;8.538;2024-01-07T05:32:56;12.53;;;6.97;;
73023;SDS011;72676;47.526;8.538;2024-01-07T05:35:22;11.70;;;6.20;;
73023;SDS011;72676;47.526;8.538;2024-01-07T05:37:49;11.87;;;6.03;;
73023;SDS011;72676;47.526;8.538;2024-01-07T05:40:15;11.80;;;6.20;;
73023;SDS011;72676;47.526;8.538;2024-01-07T05:42:42;11.00;;;6.87;;
73023;SDS011;72676;47.526;8.538;2024-01-07T05:45:08;11.07;;;6.60;;
73023;SDS011;72676;47.526;8.538;2024-01-07T05:47:35;10.13;;;5.80;;
73023;SDS011;72676;47.526;8.538;2024-01-07T05:50:02;11.80;;;6.83;;
73023;SDS011;72676;47.526;8.538;2024-01-07T05:52:28;12.70;;;6.50;;
73023;SDS011;72676;47.526;8.538;2024-01-07T05:54:55;12.70;;;6.97;;
73023;SDS011;72676;47.526;8.538;2024-01-07T05:57:21;11.60;;;6.53;;
73023;SDS011;72676;47.526;8.538;2024-01-07T05:59:48;12.87;;;6.83;;
73023;SDS011;72676;47.526;8.538;2024-01-07T06:02:20;11.33;;;6.37;;
73023;SDS011;72676;47.526;8.538;2024-01-07T06:04:49;13.63;;;7.30;;
73023;SDS011;72676;47.526;8.538;2024-01-07T06:07:15;13.10;;;7.23;;
73023;SDS011;72676;47.526;8.538;2024-01-07T06:09:42;13.20;;;6.90;;
73023;SDS011;72676;47.526;8.538;2024-01-07T06:12:08;12.23;;;6.27;;
73023;SDS011;72676;47.526;8.538;2024-01-07T06:14:35;12.23;;;6.23;;
73023;SDS011;72676;47.526;8.538;2024-01-07T06:17:01;12.30;;;6.50;;
73023;SDS011;72676;47.526;8.538;2024-01-07T06:19:27;12.00;;;7.10;;
73023;SDS011;72676;47.526;8.538;2024-01-07T06:21:55;14.47;;;7.13;;
73023;SDS011;72676;47.526;8.538;2024-01-07T06:24:22;12.73;;;7.40;;
73023;SDS011;72676;47.526;8.538;2024-01-07T06:26:49;14.47;;;6.50;;
73023;SDS011;72676;47.526;8.538;2024-01-07T06:29:15;12.53;;;6.63;;
73023;SDS011;72676;47.526;8.538;2024-01-07T06:31:44;11.00;;;6.40;;
73023;SDS011;72676;47.526;8.538;2024-01-07T06:34:11;10.77;;;6.50;;
73023;SDS011;72676;47.526;8.538;2024-01-07T06:36:41;12.17;;;6.90;;
73023;SDS011;72676;47.526;8.538;2024-01-07T06:39:08;12.57;;;6.23;;
73023;SDS011;72676;47.526;8.538;2024-01-07T06:41:35;12.03;;;6.70;;
73023;SDS011;72676;47.526;8.538;2024-01-07T06:44:02;14.83;;;7.60;;
73023;SDS011;72676;47.526;8.538;2024-01-07T06:46:29;11.20;;;6.60;;
73023;SDS011;72676;47.526;8.538;2024-01-07T06:48:55;11.83;;;6.70;;
73023;SDS011;72676;47.526;8.538;2024-01-07T06:51:22;12.20;;;6.70;;
73023;SDS011;72676;47.526;8.538;2024-01-07T06:53:48;11.83;;;6.27;;
73023;SDS011;72676;47.526;8.538;2024-01-07T06:56:16;10.77;;;6.33;;
73023;SDS011;72676;47.526;8.538;2024-01-07T06:58:43;10.23;;;6.10;;
73023;SDS011;72676;47.526;8.538;2024-01-07T07:01:10;11.83;;;6.43;;
73023;SDS011;72676;47.526;8.538;2024-01-07T07:03:37;11.70;;;5.90;;
73023;SDS011;72676;47.526;8.538;2024-01-07T07:06:05;9.03;;;5.97;;
73023;SDS011;72676;47.526;8.538;2024-01-07T07:08:33;11.60;;;6.10;;
73023;SDS011;72676;47.526;8.538;2024-01-07T07:11:00;12.37;;;6.40;;
73023;SDS011;72676;47.526;8.538;2024-01-07T07:13:27;9.87;;;6.00;;
73023;SDS011;72676;47.526;8.538;2024-01-07T07:15:53;9.60;;;5.50;;
73023;SDS011;72676;47.526;8.538;2024-01-07T07:18:20;9.13;;;5.07;;
73023;SDS011;72676;47.526;8.538;2024-01-07T07:20:46;11.00;;;5.97;;
73023;SDS011;72676;47.526;8.538;2024-01-07T07:23:13;9.80;;;5.57;;
73023;SDS011;72676;47.526;8.538;2024-01-07T07:25:40;11.77;;;6.10;;
73023;SDS011;72676;47.526;8.538;2024-01-07T07:28:06;11.20;;;6.10;;
73023;SDS011;72676;47.526;8.538;2024-01-07T07:30:33;8.90;;;5.43;;
73023;SDS011;72676;47.526;8.538;2024-01-07T07:32:59;11.13;;;6.17;;
73023;SDS011;72676;47.526;8.538;2024-01-07T07:35:26;12.77;;;7.00;;
73023;SDS011;72676;47.526;8.538;2024-01-07T07:37:52;10.57;;;6.10;;
73023;SDS011;72676;47.526;8.538;2024-01-07T07:40:19;11.70;;;5.97;;
73023;SDS011;72676;47.526;8.538;2024-01-07T07:42:45;12.17;;;6.53;;
73023;SDS011;72676;47.526;8.538;2024-01-07T07:45:12;11.60;;;6.20;;
73023;SDS011;72676;47.526;8.538;2024-01-07T07:47:39;11.80;;;6.17;;
73023;SDS011;72676;47.526;8.538;2024-01-07T07:50:11;11.17;;;6.57;;
73023;SDS011;72676;47.526;8.538;2024-01-07T07:52:38;14.43;;;6.17;;
73023;SDS011;72676;47.526;8.538;2024-01-07T07:55:04;11.63;;;6.97;;
73023;SDS011;72676;47.526;8.538;2024-01-07T07:57:33;11.90;;;6.90;;
73023;SDS011;72676;47.526;8.538;2024-01-07T07:59:59;11.30;;;5.67;;
73023;SDS011;72676;47.526;8.538;2024-01-07T08:02:29;11.67;;;6.10;;
73023;SDS011;72676;47.526;8.538;2024-01-07T08:04:56;10.40;;;6.10;;
73023;SDS011;72676;47.526;8.538;2024-01-07T08:07:22;11.47;;;5.50;;
73023;SDS011;72676;47.526;8.538;2024-01-07T08:09:49;13.50;;;6.27;;
73023;SDS011;72676;47.526;8.538;2024-01-07T08:12:15;11.03;;;5.97;;
73023;SDS011;72676;47.526;8.538;2024-01-07T08:14:42;9.50;;;5.33;;
73023;SDS011;72676;47.526;8.538;2024-01-07T08:17:08;9.87;;;5.60;;
73023;SDS011;72676;47.526;8.538;2024-01-07T08:19:35;10.80;;;6.57;;
73023;SDS011;72676;47.526;8.538;2024-01-07T08:22:02;12.03;;;6.80;;
73023;SDS011;72676;47.526;8.538;2024-01-07T08:24:29;12.83;;;7.40;;
73023;SDS011;72676;47.526;8.538;2024-01-07T08:26:55;13.57;;;7.10;;
73023;SDS011;72676;47.526;8.538;2024-01-07T08:29:22;12.53;;;6.63;;
73023;SDS011;72676;47.526;8.538;2024-01-07T08:31:48;12.87;;;6.80;;
73023;SDS011;72676;47.526;8.538;2024-01-07T08:34:15;13.20;;;6.83;;
73023;SDS011;72676;47.526;8.538;2024-01-07T08:36:42;12.60;;;5.90;;
73023;SDS011;72676;47.526;8.538;2024-01-07T08:39:08;12.87;;;7.03;;
73023;SDS011;72676;47.526;8.538;2024-01-07T08:41:35;11.03;;;6.43;;
73023;SDS011;72676;47.526;8.538;2024-01-07T08:44:01;13.27;;;6.60;;
73023;SDS011;72676;47.526;8.538;2024-01-07T08:46:28;12.20;;;7.03;;
73023;SDS011;72676;47.526;8.538;2024-01-07T08:48:55;12.97;;;7.50;;
73023;SDS011;72676;47.526;8.538;2024-01-07T08:51:21;12.10;;;6.50;;
73023;SDS011;72676;47.526;8.538;2024-01-07T08:53:48;11.87;;;5.93;;
73023;SDS011;72676;47.526;8.538;2024-01-07T08:56:15;13.30;;;6.40;;
73023;SDS011;72676;47.526;8.538;2024-01-07T08:58:41;12.33;;;6.30;;
73023;SDS011;72676;47.526;8.538;2024-01-07T09:01:08;12.80;;;6.80;;
73023;SDS011;72676;47.526;8.538;2024-01-07T09:03:34;12.00;;;6.93;;
73023;SDS011;72676;47.526;8.538;2024-01-07T09:06:01;13.30;;;7.53;;
73023;SDS011;72676;47.526;8.538;2024-01-07T09:08:28;12.73;;;7.20;;
73023;SDS011;72676;47.526;8.538;2024-01-07T09:10:55;13.40;;;6.80;;
73023;SDS011;72676;47.526;8.538;2024-01-07T09:13:21;13.83;;;6.77;;
73023;SDS011;72676;47.526;8.538;2024-01-07T09:15:48;13.33;;;7.30;;
73023;SDS011;72676;47.526;8.538;2024-01-07T09:18:14;13.77;;;7.10;;
73023;SDS011;72676;47.526;8.538;2024-01-07T09:20:41;14.93;;;7.37;;
73023;SDS011;72676;47.526;8.538;2024-01-07T09:23:07;12.23;;;7.10;;
73023;SDS011;72676;47.526;8.538;2024-01-07T09:25:34;17.37;;;8.73;;
73023;SDS011;72676;47.526;8.538;2024-01-07T09:28:00;14.67;;;7.50;;
73023;SDS011;72676;47.526;8.538;2024-01-07T09:30:27;14.00;;;7.20;;
73023;SDS011;72676;47.526;8.538;2024-01-07T09:32:54;14.07;;;7.37;;
73023;SDS011;72676;47.526;8.538;2024-01-07T09:35:20;12.57;;;6.80;;
73023;SDS011;72676;47.526;8.538;2024-01-07T09:37:47;14.70;;;6.60;;
73023;SDS011;72676;47.526;8.538;2024-01-07T09:40:16;13.97;;;7.57;;
73023;SDS011;72676;47.526;8.538;2024-01-07T09:42:45;13.90;;;6.93;;
73023;SDS011;72676;47.526;8.538;2024-01-07T09:45:12;15.10;;;7.70;;
73023;SDS011;72676;47.526;8.538;2024-01-07T09:47:40;14.53;;;8.17;;
73023;SDS011;72676;47.526;8.538;2024-01-07T09:50:10;16.00;;;7.00;;
73023;SDS011;72676;47.526;8.538;2024-01-07T09:52:43;11.63;;;6.90;;
73023;SDS011;72676;47.526;8.538;2024-01-07T09:55:12;12.50;;;6.70;;
73023;SDS011;72676;47.526;8.538;2024-01-07T09:57:48;13.17;;;6.63;;
73023;SDS011;72676;47.526;8.538;2024-01-07T10:00:15;13.93;;;7.30;;
73023;SDS011;72676;47.526;8.538;2024-01-07T10:02:42;19.17;;;7.27;;
73023;SDS011;72676;47.526;8.538;2024-01-07T10:05:10;18.63;;;9.87;;
73023;SDS011;72676;47.526;8.538;2024-01-07T10:07:36;25.30;;;11.80;;
73023;SDS011;72676;47.526;8.538;2024-01-07T10:10:16;13.20;;;7.60;;
73023;SDS011;72676;47.526;8.538;2024-01-07T10:12:44;13.90;;;7.20;;
73023;SDS011;72676;47.526;8.538;2024-01-07T10:15:12;12.33;;;6.70;;
73023;SDS011;72676;47.526;8.538;2024-01-07T10:17:40;12.23;;;6.47;;
73023;SDS011;72676;47.526;8.538;2024-01-07T10:20:09;11.80;;;6.87;;
73023;SDS011;72676;47.526;8.538;2024-01-07T10:22:36;12.17;;;6.90;;
73023;SDS011;72676;47.526;8.538;2024-01-07T10:25:04;15.60;;;7.90;;
73023;SDS011;72676;47.526;8.538;2024-01-07T10:27:35;11.33;;;6.70;;
73023;SDS011;72676;47.526;8.538;2024-01-07T10:30:03;16.17;;;8.80;;
73023;SDS011;72676;47.526;8.538;2024-01-07T10:32:30;14.30;;;7.77;;
73023;SDS011;72676;47.526;8.538;2024-01-07T10:35:02;13.50;;;6.90;;
73023;SDS011;72676;47.526;8.538;2024-01-07T10:37:32;11.90;;;6.67;;
73023;SDS011;72676;47.526;8.538;2024-01-07T10:40:00;13.43;;;6.87;;
73023;SDS011;72676;47.526;8.538;2024-01-07T10:42:33;12.17;;;6.73;;
73023;SDS011;72676;47.526;8.538;2024-01-07T10:45:00;11.13;;;6.50;;
73023;SDS011;72676;47.526;8.538;2024-01-07T10:47:30;12.40;;;6.60;;
73023;SDS011;72676;47.526;8.538;2024-01-07T10:50:01;9.60;;;6.07;;
73023;SDS011;72676;47.526;8.538;2024-01-07T10:52:29;17.53;;;9.43;;
73023;SDS011;72676;47.526;8.538;2024-01-07T10:55:00;15.40;;;8.03;;
73023;SDS011;72676;47.526;8.538;2024-01-07T11:00:09;11.17;;;6.03;;
73023;SDS011;72676;47.526;8.538;2024-01-07T11:03:27;11.00;;;6.40;;
73023;SDS011;72676;47.526;8.538;2024-01-07T11:08:34;14.87;;;6.23;;
73023;SDS011;72676;47.526;8.538;2024-01-07T11:11:14;10.33;;;6.10;;
73023;SDS011;72676;47.526;8.538;2024-01-07T11:13:44;9.60;;;5.23;;
73023;SDS011;72676;47.526;8.538;2024-01-07T11:16:10;11.43;;;5.17;;
73023;SDS011;72676;47.526;8.538;2024-01-07T11:18:38;9.67;;;5.50;;
73023;SDS011;72676;47.526;8.538;2024-01-07T11:21:23;8.20;;;5.00;;
73023;SDS011;72676;47.526;8.538;2024-01-07T11:23:52;10.27;;;5.60;;
73023;SDS011;72676;47.526;8.538;2024-01-07T11:26:19;10.00;;;5.87;;
73023;SDS011;72676;47.526;8.538;2024-01-07T11:34:04;9.10;;;5.13;;
73023;SDS011;72676;47.526;8.538;2024-01-07T11:36:34;11.17;;;5.40;;
73023;SDS011;72676;47.526;8.538;2024-01-07T11:39:02;8.53;;;4.60;;
73023;SDS011;72676;47.526;8.538;2024-01-07T11:41:31;10.93;;;5.73;;
73023;SDS011;72676;47.526;8.538;2024-01-07T11:44:00;9.30;;;5.10;;
73023;SDS011;72676;47.526;8.538;2024-01-07T11:46:32;9.43;;;5.33;;
73023;SDS011;72676;47.526;8.538;2024-01-07T11:48:59;9.77;;;5.83;;
73023;SDS011;72676;47.526;8.538;2024-01-07T11:51:27;9.30;;;5.33;;
73023;SDS011;72676;47.526;8.538;2024-01-07T11:53:58;9.77;;;5.47;;
73023;SDS011;72676;47.526;8.538;2024-01-07T11:56:26;8.93;;;5.33;;
73023;SDS011;72676;47.526;8.538;2024-01-07T11:58:52;10.97;;;6.00;;
73023;SDS011;72676;47.526;8.538;2024-01-07T12:01:19;8.90;;;5.43;;
73023;SDS011;72676;47.526;8.538;2024-01-07T12:03:46;9.83;;;5.80;;
73023;SDS011;72676;47.526;8.538;2024-01-07T12:06:13;10.53;;;6.07;;
73023;SDS011;72676;47.526;8.538;2024-01-07T12:08:40;12.10;;;6.43;;
73023;SDS011;72676;47.526;8.538;2024-01-07T12:11:07;9.60;;;5.53;;
73023;SDS011;72676;47.526;8.538;2024-01-07T12:13:35;10.17;;;6.10;;
73023;SDS011;72676;47.526;8.538;2024-01-07T12:16:03;9.77;;;5.83;;
73023;SDS011;72676;47.526;8.538;2024-01-07T12:18:31;11.40;;;6.80;;
73023;SDS011;72676;47.526;8.538;2024-01-07T12:20:58;13.17;;;6.67;;
73023;SDS011;72676;47.526;8.538;2024-01-07T12:23:26;9.80;;;5.97;;
73023;SDS011;72676;47.526;8.538;2024-01-07T12:25:53;10.93;;;6.20;;
73023;SDS011;72676;47.526;8.538;2024-01-07T12:28:20;10.90;;;6.70;;
73023;SDS011;72676;47.526;8.538;2024-01-07T12:30:49;13.80;;;6.87;;
73023;SDS011;72676;47.526;8.538;2024-01-07T12:33:19;10.77;;;6.40;;
73023;SDS011;72676;47.526;8.538;2024-01-07T12:35:46;12.10;;;6.23;;
73023;SDS011;72676;47.526;8.538;2024-01-07T12:38:14;9.93;;;6.40;;
73023;SDS011;72676;47.526;8.538;2024-01-07T12:40:41;12.10;;;5.63;;
73023;SDS011;72676;47.526;8.538;2024-01-07T12:43:08;13.40;;;7.40;;
73023;SDS011;72676;47.526;8.538;2024-01-07T12:45:34;10.73;;;6.40;;
73023;SDS011;72676;47.526;8.538;2024-01-07T12:48:01;10.63;;;5.70;;
73023;SDS011;72676;47.526;8.538;2024-01-07T12:50:29;11.23;;;6.33;;
73023;SDS011;72676;47.526;8.538;2024-01-07T12:52:59;9.30;;;5.23;;
73023;SDS011;72676;47.526;8.538;2024-01-07T12:55:25;9.53;;;5.50;;
73023;SDS011;72676;47.526;8.538;2024-01-07T12:57:52;8.60;;;5.40;;
73023;SDS011;72676;47.526;8.538;2024-01-07T13:00:20;11.20;;;5.97;;
73023;SDS011;72676;47.526;8.538;2024-01-07T13:02:47;12.07;;;6.27;;
73023;SDS011;72676;47.526;8.538;2024-01-07T13:05:14;13.17;;;7.23;;
73023;SDS011;72676;47.526;8.538;2024-01-07T13:07:41;15.80;;;7.50;;
73023;SDS011;72676;47.526;8.538;2024-01-07T13:10:08;15.53;;;7.60;;
73023;SDS011;72676;47.526;8.538;2024-01-07T13:12:35;9.37;;;5.57;;
73023;SDS011;72676;47.526;8.538;2024-01-07T13:15:13;14.00;;;6.10;;
73023;SDS011;72676;47.526;8.538;2024-01-07T13:17:43;9.53;;;5.53;;
73023;SDS011;72676;47.526;8.538;2024-01-07T13:20:10;9.17;;;5.80;;
73023;SDS011;72676;47.526;8.538;2024-01-07T13:22:38;9.00;;;6.10;;
73023;SDS011;72676;47.526;8.538;2024-01-07T13:25:05;10.60;;;6.40;;
73023;SDS011;72676;47.526;8.538;2024-01-07T13:27:32;10.60;;;6.33;;
73023;SDS011;72676;47.526;8.538;2024-01-07T13:30:02;10.83;;;7.10;;
73023;SDS011;72676;47.526;8.538;2024-01-07T13:32:29;11.50;;;6.80;;
73023;SDS011;72676;47.526;8.538;2024-01-07T13:34:56;11.40;;;6.70;;
73023;SDS011;72676;47.526;8.538;2024-01-07T13:37:22;13.00;;;7.60;;
73023;SDS011;72676;47.526;8.538;2024-01-07T13:39:49;13.60;;;6.03;;
73023;SDS011;72676;47.526;8.538;2024-01-07T13:42:16;10.30;;;5.57;;
73023;SDS011;72676;47.526;8.538;2024-01-07T13:44:42;9.80;;;5.10;;
73023;SDS011;72676;47.526;8.538;2024-01-07T13:47:13;10.93;;;5.50;;
73023;SDS011;72676;47.526;8.538;2024-01-07T13:49:43;10.60;;;5.60;;
73023;SDS011;72676;47.526;8.538;2024-01-07T13:52:11;10.90;;;5.60;;
73023;SDS011;72676;47.526;8.538;2024-01-07T13:54:40;8.77;;;5.13;;
73023;SDS011;72676;47.526;8.538;2024-01-07T13:57:07;10.77;;;6.00;;
73023;SDS011;72676;47.526;8.538;2024-01-07T13:59:33;12.03;;;6.63;;
73023;SDS011;72676;47.526;8.538;2024-01-07T14:02:00;13.20;;;7.43;;
73023;SDS011;72676;47.526;8.538;2024-01-07T14:04:29;10.60;;;5.27;;
73023;SDS011;72676;47.526;8.538;2024-01-07T14:06:55;9.97;;;5.20;;
73023;SDS011;72676;47.526;8.538;2024-01-07T14:09:22;11.27;;;5.20;;
73023;SDS011;72676;47.526;8.538;2024-01-07T14:11:49;12.07;;;6.00;;
73023;SDS011;72676;47.526;8.538;2024-01-07T14:14:16;15.53;;;6.17;;
73023;SDS011;72676;47.526;8.538;2024-01-07T14:16:42;10.30;;;5.47;;
73023;SDS011;72676;47.526;8.538;2024-01-07T14:19:09;10.20;;;5.77;;
73023;SDS011;72676;47.526;8.538;2024-01-07T14:21:35;10.70;;;6.63;;
73023;SDS011;72676;47.526;8.538;2024-01-07T14:24:02;12.33;;;6.60;;
73023;SDS011;72676;47.526;8.538;2024-01-07T14:26:29;12.03;;;6.60;;
73023;SDS011;72676;47.526;8.538;2024-01-07T14:28:55;10.17;;;5.50;;
73023;SDS011;72676;47.526;8.538;2024-01-07T14:31:41;12.07;;;5.90;;
73023;SDS011;72676;47.526;8.538;2024-01-07T14:34:07;10.23;;;5.60;;
73023;SDS011;72676;47.526;8.538;2024-01-07T14:36:34;9.33;;;5.53;;
73023;SDS011;72676;47.526;8.538;2024-01-07T14:39:00;11.93;;;5.63;;
73023;SDS011;72676;47.526;8.538;2024-01-07T14:41:27;9.77;;;5.50;;
73023;SDS011;72676;47.526;8.538;2024-01-07T14:43:53;10.33;;;5.30;;
73023;SDS011;72676;47.526;8.538;2024-01-07T14:46:21;11.83;;;5.90;;
73023;SDS011;72676;47.526;8.538;2024-01-07T14:48:47;12.70;;;5.93;;